sensor_id;sensor_type;location;lat;lon;timestamp;P1;durP1;ratioP1;P2;durP2;ratioP2
21243;SDS011;10780;50.942;4.028;2023-05-10T00:01:45;13.43;;;7.45;;
21243;SDS011;10780;50.942;4.028;2023-05-10T00:04:11;13.85;;;7.90;;
21243;SDS011;10780;50.942;4.028;2023-05-10T00:06:37;13.57;;;7.90;;
21243;SDS011;10780;50.942;4.028;2023-05-10T00:09:02;11.93;;;7.85;;
21243;SDS011;10780;50.942;4.028;2023-05-10T00:11:28;14.45;;;7.15;;
21243;SDS011;10780;50.942;4.028;2023-05-10T00:13:54;12.98;;;7.63;;
21243;SDS011;10780;50.942;4.028;2023-05-10T00:16:20;12.27;;;8.45;;
21243;SDS011;10780;50.942;4.028;2023-05-10T00:18:46;15.27;;;8.60;;
21243;SDS011;10780;50.942;4.028;2023-05-10T00:21:11;14.48;;;8.15;;
21243;SDS011;10780;50.942;4.028;2023-05-10T00:23:37;15.98;;;7.97;;
21243;SDS011;10780;50.942;4.028;2023-05-10T00:26:03;15.98;;;8.35;;
21243;SDS011;10780;50.942;4.028;2023-05-10T00:28:28;12.85;;;7.45;;
21243;SDS011;10780;50.942;4.028;2023-05-10T00:30:54;16.15;;;8.57;;
21243;SDS011;10780;50.942;4.028;2023-05-10T00:33:20;14.63;;;8.38;;
21243;SDS011;10780;50.942;4.028;2023-05-10T00:35:46;15.85;;;8.45;;
21243;SDS011;10780;50.942;4.028;2023-05-10T00:38:11;14.18;;;8.52;;
21243;SDS011;10780;50.942;4.028;2023-05-10T00:40:37;15.57;;;8.82;;
21243;SDS011;10780;50.942;4.028;2023-05-10T00:43:03;13.90;;;8.60;;
21243;SDS011;10780;50.942;4.028;2023-05-10T00:45:30;12.57;;;8.32;;
21243;SDS011;10780;50.942;4.028;2023-05-10T00:47:57;13.40;;;8.38;;
21243;SDS011;10780;50.942;4.028;2023-05-10T00:50:24;17.25;;;9.82;;
21243;SDS011;10780;50.942;4.028;2023-05-10T00:52:51;15.38;;;9.35;;
21243;SDS011;10780;50.942;4.028;2023-05-10T00:55:17;16.63;;;9.77;;
21243;SDS011;10780;50.942;4.028;2023-05-10T00:57:43;15.82;;;9.77;;
21243;SDS011;10780;50.942;4.028;2023-05-10T01:00:09;15.32;;;9.70;;
21243;SDS011;10780;50.942;4.028;2023-05-10T01:02:36;18.95;;;11.25;;
21243;SDS011;10780;50.942;4.028;2023-05-10T01:05:02;19.33;;;10.63;;
21243;SDS011;10780;50.942;4.028;2023-05-10T01:07:31;19.08;;;10.75;;
21243;SDS011;10780;50.942;4.028;2023-05-10T01:09:56;16.00;;;11.02;;
21243;SDS011;10780;50.942;4.028;2023-05-10T01:12:22;16.67;;;11.15;;
21243;SDS011;10780;50.942;4.028;2023-05-10T01:14:48;16.73;;;10.63;;
21243;SDS011;10780;50.942;4.028;2023-05-10T01:17:14;16.98;;;11.35;;
21243;SDS011;10780;50.942;4.028;2023-05-10T01:19:41;20.35;;;11.60;;
21243;SDS011;10780;50.942;4.028;2023-05-10T01:22:34;17.30;;;11.27;;
21243;SDS011;10780;50.942;4.028;2023-05-10T01:31:02;18.80;;;11.48;;
21243;SDS011;10780;50.942;4.028;2023-05-10T01:33:39;22.73;;;12.38;;
21243;SDS011;10780;50.942;4.028;2023-05-10T01:36:51;17.38;;;11.70;;
21243;SDS011;10780;50.942;4.028;2023-05-10T01:39:36;20.15;;;12.70;;
21243;SDS011;10780;50.942;4.028;2023-05-10T01:42:08;20.52;;;12.07;;
21243;SDS011;10780;50.942;4.028;2023-05-10T01:47:30;22.05;;;13.80;;
21243;SDS011;10780;50.942;4.028;2023-05-10T01:50:02;23.13;;;13.10;;
21243;SDS011;10780;50.942;4.028;2023-05-10T01:52:36;27.60;;;15.10;;
21243;SDS011;10780;50.942;4.028;2023-05-10T01:55:06;27.55;;;15.52;;
21243;SDS011;10780;50.942;4.028;2023-05-10T01:57:35;26.52;;;14.75;;
21243;SDS011;10780;50.942;4.028;2023-05-10T02:00:04;22.63;;;14.43;;
21243;SDS011;10780;50.942;4.028;2023-05-10T02:02:33;26.35;;;15.48;;
21243;SDS011;10780;50.942;4.028;2023-05-10T02:05:07;26.50;;;14.85;;
21243;SDS011;10780;50.942;4.028;2023-05-10T02:07:34;24.40;;;15.05;;
21243;SDS011;10780;50.942;4.028;2023-05-10T02:10:01;25.85;;;14.40;;
21243;SDS011;10780;50.942;4.028;2023-05-10T02:12:29;27.75;;;15.48;;
21243;SDS011;10780;50.942;4.028;2023-05-10T02:14:59;25.90;;;15.00;;
21243;SDS011;10780;50.942;4.028;2023-05-10T02:17:27;24.23;;;13.98;;
21243;SDS011;10780;50.942;4.028;2023-05-10T02:19:55;23.85;;;14.10;;
21243;SDS011;10780;50.942;4.028;2023-05-10T02:22:22;27.58;;;14.38;;
21243;SDS011;10780;50.942;4.028;2023-05-10T02:24:51;29.33;;;14.60;;
21243;SDS011;10780;50.942;4.028;2023-05-10T02:27:19;26.75;;;14.10;;
21243;SDS011;10780;50.942;4.028;2023-05-10T02:29:48;29.95;;;14.75;;
21243;SDS011;10780;50.942;4.028;2023-05-10T02:32:15;27.27;;;15.02;;
21243;SDS011;10780;50.942;4.028;2023-05-10T02:34:42;24.48;;;15.30;;
21243;SDS011;10780;50.942;4.028;2023-05-10T02:37:10;27.67;;;15.70;;
21243;SDS011;10780;50.942;4.028;2023-05-10T02:39:39;32.15;;;16.95;;
21243;SDS011;10780;50.942;4.028;2023-05-10T02:42:10;29.70;;;15.18;;
21243;SDS011;10780;50.942;4.028;2023-05-10T02:44:45;25.00;;;14.73;;
21243;SDS011;10780;50.942;4.028;2023-05-10T02:47:12;28.52;;;16.00;;
21243;SDS011;10780;50.942;4.028;2023-05-10T02:49:38;27.27;;;15.10;;
21243;SDS011;10780;50.942;4.028;2023-05-10T02:52:04;27.48;;;15.40;;
21243;SDS011;10780;50.942;4.028;2023-05-10T02:54:45;26.88;;;15.27;;
21243;SDS011;10780;50.942;4.028;2023-05-10T02:57:16;27.10;;;15.23;;
21243;SDS011;10780;50.942;4.028;2023-05-10T02:59:46;25.95;;;14.38;;
21243;SDS011;10780;50.942;4.028;2023-05-10T03:02:12;26.38;;;14.35;;
21243;SDS011;10780;50.942;4.028;2023-05-10T03:04:39;25.05;;;14.30;;
21243;SDS011;10780;50.942;4.028;2023-05-10T03:07:05;25.13;;;14.73;;
21243;SDS011;10780;50.942;4.028;2023-05-10T03:09:31;26.52;;;14.07;;
21243;SDS011;10780;50.942;4.028;2023-05-10T03:14:49;24.08;;;15.50;;
21243;SDS011;10780;50.942;4.028;2023-05-10T03:17:36;24.85;;;13.93;;
21243;SDS011;10780;50.942;4.028;2023-05-10T03:20:08;23.73;;;14.40;;
21243;SDS011;10780;50.942;4.028;2023-05-10T03:23:20;29.55;;;15.00;;
21243;SDS011;10780;50.942;4.028;2023-05-10T03:25:27;27.08;;;15.48;;
21243;SDS011;10780;50.942;4.028;2023-05-10T03:27:55;29.13;;;15.45;;
21243;SDS011;10780;50.942;4.028;2023-05-10T03:30:22;25.92;;;14.80;;
21243;SDS011;10780;50.942;4.028;2023-05-10T03:32:49;24.35;;;13.18;;
21243;SDS011;10780;50.942;4.028;2023-05-10T03:35:15;23.42;;;14.73;;
21243;SDS011;10780;50.942;4.028;2023-05-10T03:37:41;26.50;;;15.05;;
21243;SDS011;10780;50.942;4.028;2023-05-10T03:40:07;27.02;;;14.30;;
21243;SDS011;10780;50.942;4.028;2023-05-10T03:42:33;26.02;;;14.30;;
21243;SDS011;10780;50.942;4.028;2023-05-10T03:44:59;30.45;;;16.23;;
21243;SDS011;10780;50.942;4.028;2023-05-10T03:47:25;31.48;;;16.88;;
21243;SDS011;10780;50.942;4.028;2023-05-10T03:49:50;30.40;;;16.13;;
21243;SDS011;10780;50.942;4.028;2023-05-10T03:52:16;30.77;;;17.35;;
21243;SDS011;10780;50.942;4.028;2023-05-10T03:54:43;31.85;;;17.17;;
21243;SDS011;10780;50.942;4.028;2023-05-10T03:57:08;31.50;;;16.98;;
21243;SDS011;10780;50.942;4.028;2023-05-10T03:59:34;32.47;;;18.33;;
21243;SDS011;10780;50.942;4.028;2023-05-10T04:02:00;31.35;;;17.25;;
21243;SDS011;10780;50.942;4.028;2023-05-10T04:04:26;33.85;;;17.88;;
21243;SDS011;10780;50.942;4.028;2023-05-10T04:06:51;38.65;;;19.25;;
21243;SDS011;10780;50.942;4.028;2023-05-10T04:09:17;33.95;;;19.88;;
21243;SDS011;10780;50.942;4.028;2023-05-10T04:11:42;34.28;;;18.90;;
21243;SDS011;10780;50.942;4.028;2023-05-10T04:14:08;38.08;;;20.85;;
21243;SDS011;10780;50.942;4.028;2023-05-10T04:16:34;35.30;;;19.70;;
21243;SDS011;10780;50.942;4.028;2023-05-10T04:18:59;36.42;;;19.92;;
21243;SDS011;10780;50.942;4.028;2023-05-10T04:21:25;33.13;;;19.38;;
21243;SDS011;10780;50.942;4.028;2023-05-10T04:23:51;34.83;;;18.73;;
21243;SDS011;10780;50.942;4.028;2023-05-10T04:26:16;34.88;;;19.50;;
21243;SDS011;10780;50.942;4.028;2023-05-10T04:28:42;35.58;;;19.20;;
21243;SDS011;10780;50.942;4.028;2023-05-10T04:31:09;34.35;;;19.05;;
21243;SDS011;10780;50.942;4.028;2023-05-10T04:33:35;36.13;;;19.25;;
21243;SDS011;10780;50.942;4.028;2023-05-10T04:36:01;37.83;;;18.85;;
21243;SDS011;10780;50.942;4.028;2023-05-10T04:38:28;32.65;;;18.35;;
21243;SDS011;10780;50.942;4.028;2023-05-10T04:40:54;33.42;;;18.77;;
21243;SDS011;10780;50.942;4.028;2023-05-10T04:43:19;32.35;;;17.30;;
21243;SDS011;10780;50.942;4.028;2023-05-10T04:45:45;33.92;;;16.80;;
21243;SDS011;10780;50.942;4.028;2023-05-10T04:48:11;29.30;;;17.52;;
21243;SDS011;10780;50.942;4.028;2023-05-10T04:50:37;31.45;;;16.95;;
21243;SDS011;10780;50.942;4.028;2023-05-10T04:53:03;32.78;;;17.42;;
21243;SDS011;10780;50.942;4.028;2023-05-10T04:55:29;32.83;;;18.10;;
21243;SDS011;10780;50.942;4.028;2023-05-10T04:57:55;32.90;;;16.92;;
21243;SDS011;10780;50.942;4.028;2023-05-10T05:00:22;33.25;;;19.23;;
21243;SDS011;10780;50.942;4.028;2023-05-10T05:02:48;37.22;;;19.00;;
21243;SDS011;10780;50.942;4.028;2023-05-10T05:05:14;33.03;;;18.05;;
21243;SDS011;10780;50.942;4.028;2023-05-10T05:07:39;36.08;;;18.45;;
21243;SDS011;10780;50.942;4.028;2023-05-10T05:10:05;31.48;;;17.23;;
21243;SDS011;10780;50.942;4.028;2023-05-10T05:12:32;29.80;;;17.13;;
21243;SDS011;10780;50.942;4.028;2023-05-10T05:14:58;33.97;;;18.33;;
21243;SDS011;10780;50.942;4.028;2023-05-10T05:17:23;33.13;;;18.17;;
21243;SDS011;10780;50.942;4.028;2023-05-10T05:19:49;31.60;;;17.77;;
21243;SDS011;10780;50.942;4.028;2023-05-10T05:22:15;36.60;;;19.40;;
21243;SDS011;10780;50.942;4.028;2023-05-10T05:24:41;35.70;;;17.70;;
21243;SDS011;10780;50.942;4.028;2023-05-10T05:27:06;32.92;;;18.40;;
21243;SDS011;10780;50.942;4.028;2023-05-10T05:29:32;34.90;;;19.05;;
21243;SDS011;10780;50.942;4.028;2023-05-10T05:31:58;37.08;;;20.48;;
21243;SDS011;10780;50.942;4.028;2023-05-10T05:34:24;36.45;;;19.27;;
21243;SDS011;10780;50.942;4.028;2023-05-10T05:36:50;36.42;;;20.02;;
21243;SDS011;10780;50.942;4.028;2023-05-10T05:39:15;40.80;;;20.55;;
21243;SDS011;10780;50.942;4.028;2023-05-10T05:41:41;43.00;;;21.00;;
21243;SDS011;10780;50.942;4.028;2023-05-10T05:44:07;34.53;;;19.55;;
21243;SDS011;10780;50.942;4.028;2023-05-10T05:46:33;34.63;;;19.92;;
21243;SDS011;10780;50.942;4.028;2023-05-10T05:48:58;39.67;;;20.70;;
21243;SDS011;10780;50.942;4.028;2023-05-10T05:51:24;37.53;;;21.33;;
21243;SDS011;10780;50.942;4.028;2023-05-10T05:53:50;36.80;;;20.10;;
21243;SDS011;10780;50.942;4.028;2023-05-10T05:56:15;36.40;;;20.30;;
21243;SDS011;10780;50.942;4.028;2023-05-10T05:58:42;40.03;;;20.42;;
21243;SDS011;10780;50.942;4.028;2023-05-10T06:01:09;37.97;;;20.35;;
21243;SDS011;10780;50.942;4.028;2023-05-10T06:03:35;42.35;;;20.00;;
21243;SDS011;10780;50.942;4.028;2023-05-10T06:06:01;40.20;;;21.02;;
21243;SDS011;10780;50.942;4.028;2023-05-10T06:08:26;45.10;;;22.20;;
21243;SDS011;10780;50.942;4.028;2023-05-10T06:10:52;43.88;;;21.80;;
21243;SDS011;10780;50.942;4.028;2023-05-10T06:13:17;39.47;;;21.02;;
21243;SDS011;10780;50.942;4.028;2023-05-10T06:15:43;37.53;;;21.02;;
21243;SDS011;10780;50.942;4.028;2023-05-10T06:18:09;39.75;;;21.50;;
21243;SDS011;10780;50.942;4.028;2023-05-10T06:20:34;41.28;;;21.02;;
21243;SDS011;10780;50.942;4.028;2023-05-10T06:23:02;44.22;;;21.73;;
21243;SDS011;10780;50.942;4.028;2023-05-10T06:25:27;39.45;;;20.85;;
21243;SDS011;10780;50.942;4.028;2023-05-10T06:27:59;39.88;;;21.42;;
21243;SDS011;10780;50.942;4.028;2023-05-10T06:30:26;40.22;;;22.00;;
21243;SDS011;10780;50.942;4.028;2023-05-10T06:32:53;38.50;;;21.35;;
21243;SDS011;10780;50.942;4.028;2023-05-10T06:35:19;43.85;;;19.48;;
21243;SDS011;10780;50.942;4.028;2023-05-10T06:37:45;41.33;;;20.65;;
21243;SDS011;10780;50.942;4.028;2023-05-10T06:40:12;43.25;;;21.05;;
21243;SDS011;10780;50.942;4.028;2023-05-10T06:42:39;35.78;;;20.13;;
21243;SDS011;10780;50.942;4.028;2023-05-10T06:45:05;40.03;;;18.50;;
21243;SDS011;10780;50.942;4.028;2023-05-10T06:47:32;36.58;;;20.20;;
21243;SDS011;10780;50.942;4.028;2023-05-10T06:49:58;37.35;;;19.50;;
21243;SDS011;10780;50.942;4.028;2023-05-10T06:52:24;35.47;;;18.73;;
21243;SDS011;10780;50.942;4.028;2023-05-10T06:54:50;37.65;;;18.08;;
21243;SDS011;10780;50.942;4.028;2023-05-10T06:57:16;33.58;;;18.27;;
21243;SDS011;10780;50.942;4.028;2023-05-10T06:59:42;33.38;;;18.52;;
21243;SDS011;10780;50.942;4.028;2023-05-10T07:02:08;35.28;;;18.45;;
21243;SDS011;10780;50.942;4.028;2023-05-10T07:04:34;41.95;;;18.00;;
21243;SDS011;10780;50.942;4.028;2023-05-10T07:06:59;34.67;;;17.33;;
21243;SDS011;10780;50.942;4.028;2023-05-10T07:09:25;36.17;;;17.63;;
21243;SDS011;10780;50.942;4.028;2023-05-10T07:11:51;34.10;;;17.48;;
21243;SDS011;10780;50.942;4.028;2023-05-10T07:14:17;31.63;;;16.90;;
21243;SDS011;10780;50.942;4.028;2023-05-10T07:16:43;31.58;;;17.83;;
21243;SDS011;10780;50.942;4.028;2023-05-10T07:19:09;34.60;;;17.33;;
21243;SDS011;10780;50.942;4.028;2023-05-10T07:21:35;30.20;;;17.80;;
21243;SDS011;10780;50.942;4.028;2023-05-10T07:24:02;35.15;;;17.73;;
21243;SDS011;10780;50.942;4.028;2023-05-10T07:26:28;36.30;;;17.70;;
21243;SDS011;10780;50.942;4.028;2023-05-10T07:28:54;34.70;;;16.92;;
21243;SDS011;10780;50.942;4.028;2023-05-10T07:31:20;35.00;;;17.85;;
21243;SDS011;10780;50.942;4.028;2023-05-10T07:33:46;38.40;;;18.00;;
21243;SDS011;10780;50.942;4.028;2023-05-10T07:36:12;37.20;;;18.48;;
21243;SDS011;10780;50.942;4.028;2023-05-10T07:38:37;36.45;;;16.50;;
21243;SDS011;10780;50.942;4.028;2023-05-10T07:41:04;33.83;;;17.92;;
21243;SDS011;10780;50.942;4.028;2023-05-10T07:43:30;38.33;;;17.83;;
21243;SDS011;10780;50.942;4.028;2023-05-10T07:45:56;28.08;;;16.30;;
21243;SDS011;10780;50.942;4.028;2023-05-10T07:48:22;32.58;;;17.80;;
21243;SDS011;10780;50.942;4.028;2023-05-10T07:50:50;32.78;;;17.35;;
21243;SDS011;10780;50.942;4.028;2023-05-10T07:53:16;30.27;;;16.67;;
21243;SDS011;10780;50.942;4.028;2023-05-10T07:55:43;27.83;;;17.08;;
21243;SDS011;10780;50.942;4.028;2023-05-10T07:58:10;28.60;;;15.27;;
21243;SDS011;10780;50.942;4.028;2023-05-10T08:00:35;30.85;;;15.93;;
21243;SDS011;10780;50.942;4.028;2023-05-10T08:03:04;29.00;;;16.40;;
21243;SDS011;10780;50.942;4.028;2023-05-10T08:05:29;28.75;;;15.73;;
21243;SDS011;10780;50.942;4.028;2023-05-10T08:07:56;30.15;;;15.10;;
21243;SDS011;10780;50.942;4.028;2023-05-10T08:10:22;25.70;;;15.05;;
21243;SDS011;10780;50.942;4.028;2023-05-10T08:12:49;24.55;;;14.77;;
21243;SDS011;10780;50.942;4.028;2023-05-10T08:15:15;23.38;;;14.18;;
21243;SDS011;10780;50.942;4.028;2023-05-10T08:17:41;24.67;;;14.95;;
21243;SDS011;10780;50.942;4.028;2023-05-10T08:20:08;22.15;;;13.73;;
21243;SDS011;10780;50.942;4.028;2023-05-10T08:22:37;25.33;;;13.85;;
21243;SDS011;10780;50.942;4.028;2023-05-10T08:25:03;25.83;;;12.93;;
21243;SDS011;10780;50.942;4.028;2023-05-10T08:27:29;23.15;;;12.65;;
21243;SDS011;10780;50.942;4.028;2023-05-10T08:29:54;20.52;;;11.80;;
21243;SDS011;10780;50.942;4.028;2023-05-10T08:32:20;24.70;;;12.32;;
21243;SDS011;10780;50.942;4.028;2023-05-10T08:34:46;18.08;;;11.95;;
21243;SDS011;10780;50.942;4.028;2023-05-10T08:37:12;19.48;;;11.15;;
21243;SDS011;10780;50.942;4.028;2023-05-10T08:39:38;19.95;;;10.82;;
21243;SDS011;10780;50.942;4.028;2023-05-10T08:42:04;19.63;;;11.13;;
21243;SDS011;10780;50.942;4.028;2023-05-10T08:44:34;13.88;;;9.57;;
21243;SDS011;10780;50.942;4.028;2023-05-10T08:47:02;18.98;;;10.40;;
21243;SDS011;10780;50.942;4.028;2023-05-10T08:49:31;15.27;;;9.57;;
21243;SDS011;10780;50.942;4.028;2023-05-10T08:51:58;19.73;;;9.45;;
21243;SDS011;10780;50.942;4.028;2023-05-10T08:54:30;15.45;;;9.38;;
21243;SDS011;10780;50.942;4.028;2023-05-10T08:56:58;15.52;;;10.25;;
21243;SDS011;10780;50.942;4.028;2023-05-10T08:59:24;18.48;;;10.15;;
21243;SDS011;10780;50.942;4.028;2023-05-10T09:01:53;18.15;;;11.13;;
21243;SDS011;10780;50.942;4.028;2023-05-10T09:04:21;19.58;;;10.63;;
21243;SDS011;10780;50.942;4.028;2023-05-10T09:06:46;20.77;;;10.77;;
21243;SDS011;10780;50.942;4.028;2023-05-10T09:09:12;22.42;;;10.75;;
21243;SDS011;10780;50.942;4.028;2023-05-10T09:11:38;19.52;;;10.73;;
21243;SDS011;10780;50.942;4.028;2023-05-10T09:14:04;19.30;;;10.90;;
21243;SDS011;10780;50.942;4.028;2023-05-10T09:16:30;19.95;;;10.93;;
21243;SDS011;10780;50.942;4.028;2023-05-10T09:18:59;18.02;;;10.27;;
21243;SDS011;10780;50.942;4.028;2023-05-10T09:21:24;15.52;;;9.35;;
21243;SDS011;10780;50.942;4.028;2023-05-10T09:23:50;16.92;;;9.55;;
21243;SDS011;10780;50.942;4.028;2023-05-10T09:26:23;17.55;;;9.32;;
21243;SDS011;10780;50.942;4.028;2023-05-10T09:28:56;15.35;;;8.82;;
21243;SDS011;10780;50.942;4.028;2023-05-10T09:31:23;17.15;;;9.77;;
21243;SDS011;10780;50.942;4.028;2023-05-10T09:33:50;13.20;;;9.68;;
21243;SDS011;10780;50.942;4.028;2023-05-10T09:36:17;13.98;;;9.20;;
21243;SDS011;10780;50.942;4.028;2023-05-10T09:38:47;16.83;;;9.63;;
21243;SDS011;10780;50.942;4.028;2023-05-10T09:41:19;15.73;;;9.25;;
21243;SDS011;10780;50.942;4.028;2023-05-10T09:43:48;13.75;;;9.00;;
21243;SDS011;10780;50.942;4.028;2023-05-10T09:46:14;13.80;;;10.05;;
21243;SDS011;10780;50.942;4.028;2023-05-10T09:48:44;12.68;;;9.13;;
21243;SDS011;10780;50.942;4.028;2023-05-10T09:51:24;13.98;;;9.27;;
21243;SDS011;10780;50.942;4.028;2023-05-10T09:54:11;15.90;;;9.75;;
21243;SDS011;10780;50.942;4.028;2023-05-10T09:56:40;17.13;;;10.43;;
21243;SDS011;10780;50.942;4.028;2023-05-10T09:59:06;14.43;;;9.50;;
21243;SDS011;10780;50.942;4.028;2023-05-10T10:01:34;14.10;;;9.40;;
21243;SDS011;10780;50.942;4.028;2023-05-10T10:04:06;14.93;;;9.77;;
21243;SDS011;10780;50.942;4.028;2023-05-10T10:06:37;12.70;;;9.30;;
21243;SDS011;10780;50.942;4.028;2023-05-10T10:09:07;13.90;;;9.60;;
21243;SDS011;10780;50.942;4.028;2023-05-10T10:11:34;11.90;;;9.95;;
21243;SDS011;10780;50.942;4.028;2023-05-10T10:14:00;11.77;;;9.07;;
21243;SDS011;10780;50.942;4.028;2023-05-10T10:16:29;14.07;;;9.23;;
21243;SDS011;10780;50.942;4.028;2023-05-10T10:18:55;13.27;;;9.50;;
21243;SDS011;10780;50.942;4.028;2023-05-10T10:21:22;13.77;;;9.73;;
21243;SDS011;10780;50.942;4.028;2023-05-10T10:23:48;14.60;;;10.10;;
21243;SDS011;10780;50.942;4.028;2023-05-10T10:26:14;12.90;;;8.93;;
21243;SDS011;10780;50.942;4.028;2023-05-10T10:28:56;11.32;;;9.30;;
21243;SDS011;10780;50.942;4.028;2023-05-10T10:31:37;14.93;;;9.98;;
21243;SDS011;10780;50.942;4.028;2023-05-10T10:34:27;13.70;;;9.45;;
21243;SDS011;10780;50.942;4.028;2023-05-10T10:36:55;13.40;;;9.80;;
21243;SDS011;10780;50.942;4.028;2023-05-10T10:39:22;15.00;;;10.32;;
21243;SDS011;10780;50.942;4.028;2023-05-10T10:41:53;16.10;;;10.85;;
21243;SDS011;10780;50.942;4.028;2023-05-10T10:50:05;15.75;;;9.85;;
21243;SDS011;10780;50.942;4.028;2023-05-10T10:52:39;13.20;;;9.98;;
21243;SDS011;10780;50.942;4.028;2023-05-10T10:55:06;15.05;;;9.93;;
21243;SDS011;10780;50.942;4.028;2023-05-10T11:00:30;13.32;;;9.48;;
21243;SDS011;10780;50.942;4.028;2023-05-10T11:08:27;13.52;;;9.48;;
21243;SDS011;10780;50.942;4.028;2023-05-10T11:13:28;12.98;;;9.88;;
21243;SDS011;10780;50.942;4.028;2023-05-10T11:15:56;14.02;;;9.70;;
21243;SDS011;10780;50.942;4.028;2023-05-10T11:18:31;12.70;;;9.52;;
21243;SDS011;10780;50.942;4.028;2023-05-10T11:20:58;15.13;;;9.82;;
21243;SDS011;10780;50.942;4.028;2023-05-10T11:23:29;13.88;;;9.73;;
21243;SDS011;10780;50.942;4.028;2023-05-10T11:26:13;12.77;;;9.82;;
21243;SDS011;10780;50.942;4.028;2023-05-10T11:28:45;13.27;;;9.65;;
21243;SDS011;10780;50.942;4.028;2023-05-10T11:31:16;15.18;;;10.00;;
21243;SDS011;10780;50.942;4.028;2023-05-10T11:33:47;14.15;;;9.27;;
21243;SDS011;10780;50.942;4.028;2023-05-10T11:36:20;15.45;;;10.50;;
21243;SDS011;10780;50.942;4.028;2023-05-10T11:38:48;15.35;;;10.25;;
21243;SDS011;10780;50.942;4.028;2023-05-10T11:41:15;15.07;;;9.93;;
21243;SDS011;10780;50.942;4.028;2023-05-10T11:43:42;16.05;;;10.32;;
21243;SDS011;10780;50.942;4.028;2023-05-10T11:46:11;12.02;;;9.13;;
21243;SDS011;10780;50.942;4.028;2023-05-10T11:48:41;12.50;;;9.60;;
21243;SDS011;10780;50.942;4.028;2023-05-10T11:51:08;14.98;;;10.45;;
21243;SDS011;10780;50.942;4.028;2023-05-10T11:53:34;15.05;;;10.05;;
21243;SDS011;10780;50.942;4.028;2023-05-10T11:56:03;11.30;;;8.93;;
21243;SDS011;10780;50.942;4.028;2023-05-10T11:58:36;13.70;;;9.43;;
21243;SDS011;10780;50.942;4.028;2023-05-10T12:01:03;15.15;;;10.02;;
21243;SDS011;10780;50.942;4.028;2023-05-10T12:03:31;14.55;;;10.07;;
21243;SDS011;10780;50.942;4.028;2023-05-10T12:05:57;12.27;;;9.93;;
21243;SDS011;10780;50.942;4.028;2023-05-10T12:08:27;12.13;;;9.80;;
21243;SDS011;10780;50.942;4.028;2023-05-10T12:11:03;14.50;;;9.82;;
21243;SDS011;10780;50.942;4.028;2023-05-10T12:13:37;13.98;;;10.55;;
21243;SDS011;10780;50.942;4.028;2023-05-10T12:16:13;14.27;;;10.38;;
21243;SDS011;10780;50.942;4.028;2023-05-10T12:18:43;16.15;;;10.70;;
21243;SDS011;10780;50.942;4.028;2023-05-10T12:21:12;16.13;;;10.32;;
21243;SDS011;10780;50.942;4.028;2023-05-10T12:23:40;12.70;;;10.18;;
21243;SDS011;10780;50.942;4.028;2023-05-10T12:26:07;15.80;;;10.82;;
21243;SDS011;10780;50.942;4.028;2023-05-10T12:28:34;16.23;;;10.48;;
21243;SDS011;10780;50.942;4.028;2023-05-10T12:31:00;17.00;;;11.00;;
21243;SDS011;10780;50.942;4.028;2023-05-10T12:33:27;20.98;;;11.57;;
21243;SDS011;10780;50.942;4.028;2023-05-10T12:36:00;13.93;;;10.73;;
21243;SDS011;10780;50.942;4.028;2023-05-10T12:41:01;16.60;;;10.98;;
21243;SDS011;10780;50.942;4.028;2023-05-10T12:43:28;15.27;;;10.70;;
21243;SDS011;10780;50.942;4.028;2023-05-10T12:45:54;16.30;;;11.80;;
21243;SDS011;10780;50.942;4.028;2023-05-10T12:48:20;15.00;;;11.10;;
21243;SDS011;10780;50.942;4.028;2023-05-10T12:50:46;16.77;;;11.68;;
21243;SDS011;10780;50.942;4.028;2023-05-10T12:53:15;15.63;;;11.35;;
21243;SDS011;10780;50.942;4.028;2023-05-10T12:55:42;17.02;;;11.45;;
21243;SDS011;10780;50.942;4.028;2023-05-10T12:58:08;18.55;;;11.43;;
21243;SDS011;10780;50.942;4.028;2023-05-10T13:00:34;20.73;;;12.38;;
21243;SDS011;10780;50.942;4.028;2023-05-10T13:03:00;18.33;;;12.25;;
21243;SDS011;10780;50.942;4.028;2023-05-10T13:05:25;15.65;;;12.13;;
21243;SDS011;10780;50.942;4.028;2023-05-10T13:07:51;15.90;;;11.52;;
21243;SDS011;10780;50.942;4.028;2023-05-10T13:10:16;17.42;;;12.45;;
21243;SDS011;10780;50.942;4.028;2023-05-10T13:12:42;15.25;;;11.80;;
21243;SDS011;10780;50.942;4.028;2023-05-10T13:15:09;17.63;;;12.93;;
21243;SDS011;10780;50.942;4.028;2023-05-10T13:17:35;17.30;;;12.80;;
21243;SDS011;10780;50.942;4.028;2023-05-10T13:20:00;20.25;;;13.70;;
21243;SDS011;10780;50.942;4.028;2023-05-10T13:22:26;20.45;;;13.65;;
21243;SDS011;10780;50.942;4.028;2023-05-10T13:24:51;15.55;;;12.77;;
21243;SDS011;10780;50.942;4.028;2023-05-10T13:27:17;15.82;;;11.40;;
21243;SDS011;10780;50.942;4.028;2023-05-10T13:29:43;15.88;;;11.63;;
21243;SDS011;10780;50.942;4.028;2023-05-10T13:32:08;17.13;;;12.02;;
21243;SDS011;10780;50.942;4.028;2023-05-10T13:34:34;19.42;;;13.18;;
21243;SDS011;10780;50.942;4.028;2023-05-10T13:37:00;15.13;;;11.65;;
21243;SDS011;10780;50.942;4.028;2023-05-10T13:39:26;17.48;;;13.15;;
21243;SDS011;10780;50.942;4.028;2023-05-10T13:41:52;15.10;;;12.73;;
21243;SDS011;10780;50.942;4.028;2023-05-10T13:44:17;16.98;;;13.27;;
21243;SDS011;10780;50.942;4.028;2023-05-10T13:46:45;16.50;;;12.15;;
21243;SDS011;10780;50.942;4.028;2023-05-10T13:49:11;16.13;;;11.90;;
21243;SDS011;10780;50.942;4.028;2023-05-10T13:51:37;17.23;;;12.05;;
21243;SDS011;10780;50.942;4.028;2023-05-10T13:54:02;15.43;;;12.80;;
21243;SDS011;10780;50.942;4.028;2023-05-10T13:56:28;15.13;;;12.05;;
21243;SDS011;10780;50.942;4.028;2023-05-10T13:58:54;16.02;;;12.02;;
21243;SDS011;10780;50.942;4.028;2023-05-10T14:01:20;17.85;;;12.95;;
21243;SDS011;10780;50.942;4.028;2023-05-10T14:03:46;19.42;;;12.82;;
21243;SDS011;10780;50.942;4.028;2023-05-10T14:06:12;17.77;;;12.40;;
21243;SDS011;10780;50.942;4.028;2023-05-10T14:08:37;18.48;;;12.95;;
21243;SDS011;10780;50.942;4.028;2023-05-10T14:11:03;18.48;;;13.00;;
21243;SDS011;10780;50.942;4.028;2023-05-10T14:13:28;18.73;;;13.40;;
21243;SDS011;10780;50.942;4.028;2023-05-10T14:15:54;16.88;;;12.88;;
21243;SDS011;10780;50.942;4.028;2023-05-10T14:18:20;19.30;;;13.40;;
21243;SDS011;10780;50.942;4.028;2023-05-10T14:20:46;20.27;;;13.43;;
21243;SDS011;10780;50.942;4.028;2023-05-10T14:23:11;18.02;;;12.75;;
21243;SDS011;10780;50.942;4.028;2023-05-10T14:25:37;18.75;;;12.80;;
21243;SDS011;10780;50.942;4.028;2023-05-10T14:28:05;18.80;;;12.48;;
21243;SDS011;10780;50.942;4.028;2023-05-10T14:30:31;12.45;;;8.27;;
21243;SDS011;10780;50.942;4.028;2023-05-10T14:32:59;11.68;;;8.02;;
21243;SDS011;10780;50.942;4.028;2023-05-10T14:35:26;11.60;;;7.82;;
21243;SDS011;10780;50.942;4.028;2023-05-10T14:37:52;14.18;;;7.07;;
21243;SDS011;10780;50.942;4.028;2023-05-10T14:40:17;14.52;;;7.28;;
21243;SDS011;10780;50.942;4.028;2023-05-10T14:42:43;11.10;;;6.20;;
21243;SDS011;10780;50.942;4.028;2023-05-10T14:45:09;9.50;;;6.07;;
21243;SDS011;10780;50.942;4.028;2023-05-10T14:47:35;10.63;;;5.80;;
21243;SDS011;10780;50.942;4.028;2023-05-10T14:50:01;8.07;;;5.75;;
21243;SDS011;10780;50.942;4.028;2023-05-10T14:52:27;10.95;;;6.20;;
21243;SDS011;10780;50.942;4.028;2023-05-10T14:54:52;11.68;;;6.10;;
21243;SDS011;10780;50.942;4.028;2023-05-10T14:57:18;8.63;;;5.35;;
21243;SDS011;10780;50.942;4.028;2023-05-10T14:59:44;12.20;;;6.50;;